Sky Queen — 3EHV9 — position and weather

sailwx.info

Track history (hours):
 
Tides and Currents Weather Stations Pressure Air Temp Water Temp Dewpoint Dewpoint Depression Visibility Wind Speed Wind Dir Waves Ship Positions

Sky Queen

Last reported at 2015-May-17 12:12 UTC. Time now 2015-May-25 07:32 UTC.
Position N 36°44' E 123°51'.

Length 89 m; draft 4.6 m.

Type: Cargo ship. MMSI: 372259000.

Date/timePositionNaut miles runAvg speedWind from/ knotsBaromVisibWave heightAir tempDewpointWater temp
2015-May-17 12:12N 36°44' E 123°51'40 8.0
2015-May-17 07:13N 37°19' E 123°28'6 7.9
2015-May-17 06:26N 37°25' E 123°25'8 8.4
2015-May-17 05:33N 37°32' E 123°20'222 8.4
2015-May-16 03:04N 39°53' E 119°40'4 5.8
2015-May-16 02:27N 39°55' E 119°37'0 0.0
2015-May-15 13:33N 39°55' E 119°37'0 0.0
2015-May-15 12:27N 39°55' E 119°37'0 0.0
2015-May-15 10:09N 39°55' E 119°37'0 0.0
2015-May-15 08:27N 39°55' E 119°37'0 0.0
2015-May-15 07:27N 39°55' E 119°37'0 0.0
2015-May-15 06:11N 39°55' E 119°37'0 0.0
2015-May-15 05:23N 39°55' E 119°37'0 0.0
2015-May-15 04:29N 39°55' E 119°37'0 0.0
2015-May-15 03:29N 39°55' E 119°37'0 0.0
2015-May-15 02:17N 39°55' E 119°37'0 0.0
2015-May-15 01:17N 39°55' E 119°37'0 0.0
2015-May-15 00:23N 39°55' E 119°37'0 0.0
2015-May-14 20:23N 39°55' E 119°37'0 0.0
2015-May-14 19:29N 39°55' E 119°37'0 0.0
2015-May-14 18:11N 39°55' E 119°37'0 0.0
2015-May-14 17:29N 39°55' E 119°37'0 0.0
2015-May-14 16:29N 39°55' E 119°37'0 0.0
2015-May-14 15:23N 39°55' E 119°37'0 0.0
2015-May-14 14:29N 39°55' E 119°37'0 0.0
2015-May-14 13:29N 39°55' E 119°37'0 0.0
2015-May-14 12:17N 39°55' E 119°37'0 0.0
2015-May-14 11:29N 39°55' E 119°37'0 0.0
2015-May-14 10:29N 39°55' E 119°37'0 0.0
2015-May-14 09:23N 39°55' E 119°37'0 0.0
2015-May-14 08:23N 39°55' E 119°37'0 0.0
2015-May-14 06:17N 39°55' E 119°37'0 0.0
2015-May-14 00:23N 39°55' E 119°37'0 0.0
2015-May-13 20:23N 39°55' E 119°37'0 0.0
2015-May-13 19:29N 39°55' E 119°37'0 0.0
2015-May-13 17:29N 39°55' E 119°37'0 0.0
2015-May-13 16:29N 39°55' E 119°37'0 0.0
2015-May-13 15:23N 39°55' E 119°37'0 0.0
2015-May-13 14:29N 39°55' E 119°37'0 0.0
2015-May-13 13:29N 39°55' E 119°37'0 0.0
2015-May-13 12:23N 39°55' E 119°37'0 0.0
2015-May-13 11:29N 39°55' E 119°37'0 0.0
2015-May-13 10:29N 39°55' E 119°37'0 0.0
2015-May-13 09:29N 39°55' E 119°37'0 0.0
2015-May-13 08:29N 39°55' E 119°37'0 0.0
2015-May-13 07:29N 39°55' E 119°37'0 0.0
2015-May-13 06:29N 39°55' E 119°37'0 0.0
2015-May-12 19:29N 39°55' E 119°37'0 0.0
2015-May-12 15:29N 39°55' E 119°37'0 0.0
2015-May-12 14:11N 39°55' E 119°37'0 0.0
2015-May-12 13:33N 39°55' E 119°37'0 0.0
2015-May-12 12:32N 39°55' E 119°37'0 0.0
2015-May-12 07:25N 39°55' E 119°37'3 3.6
2015-May-12 06:33N 39°53' E 119°39'  
Track history (hours):
 
Tides and Currents Weather Stations Pressure Air Temp Water Temp Dewpoint Dewpoint Depression Visibility Wind Speed Wind Dir Waves Ship Positions

Sky Queen

Last reported at 2015-May-17 12:12 UTC. Time now 2015-May-25 07:32 UTC.
Position N 36°44' E 123°51'.

Length 89 m; draft 4.6 m.

Type: Cargo ship. MMSI: 372259000.

Date/timePositionNaut miles runAvg speedWind from/ knotsBaromVisibWave heightAir tempDewpointWater temp
2015-May-17 12:12N 36°44' E 123°51'40 8.0
2015-May-17 07:13N 37°19' E 123°28'6 7.9
2015-May-17 06:26N 37°25' E 123°25'8 8.4
2015-May-17 05:33N 37°32' E 123°20'222 8.4
2015-May-16 03:04N 39°53' E 119°40'4 5.8
2015-May-16 02:27N 39°55' E 119°37'0 0.0
2015-May-15 13:33N 39°55' E 119°37'0 0.0
2015-May-15 12:27N 39°55' E 119°37'0 0.0
2015-May-15 10:09N 39°55' E 119°37'0 0.0
2015-May-15 08:27N 39°55' E 119°37'0 0.0
2015-May-15 07:27N 39°55' E 119°37'0 0.0
2015-May-15 06:11N 39°55' E 119°37'0 0.0
2015-May-15 05:23N 39°55' E 119°37'0 0.0
2015-May-15 04:29N 39°55' E 119°37'0 0.0
2015-May-15 03:29N 39°55' E 119°37'0 0.0
2015-May-15 02:17N 39°55' E 119°37'0 0.0
2015-May-15 01:17N 39°55' E 119°37'0 0.0
2015-May-15 00:23N 39°55' E 119°37'0 0.0
2015-May-14 20:23N 39°55' E 119°37'0 0.0
2015-May-14 19:29N 39°55' E 119°37'0 0.0
2015-May-14 18:11N 39°55' E 119°37'0 0.0
2015-May-14 17:29N 39°55' E 119°37'0 0.0
2015-May-14 16:29N 39°55' E 119°37'0 0.0
2015-May-14 15:23N 39°55' E 119°37'0 0.0
2015-May-14 14:29N 39°55' E 119°37'0 0.0
2015-May-14 13:29N 39°55' E 119°37'0 0.0
2015-May-14 12:17N 39°55' E 119°37'0 0.0
2015-May-14 11:29N 39°55' E 119°37'0 0.0
2015-May-14 10:29N 39°55' E 119°37'0 0.0
2015-May-14 09:23N 39°55' E 119°37'0 0.0
2015-May-14 08:23N 39°55' E 119°37'0 0.0
2015-May-14 06:17N 39°55' E 119°37'0 0.0
2015-May-14 00:23N 39°55' E 119°37'0 0.0
2015-May-13 20:23N 39°55' E 119°37'0 0.0
2015-May-13 19:29N 39°55' E 119°37'0 0.0
2015-May-13 17:29N 39°55' E 119°37'0 0.0
2015-May-13 16:29N 39°55' E 119°37'0 0.0
2015-May-13 15:23N 39°55' E 119°37'0 0.0
2015-May-13 14:29N 39°55' E 119°37'0 0.0
2015-May-13 13:29N 39°55' E 119°37'0 0.0
2015-May-13 12:23N 39°55' E 119°37'0 0.0
2015-May-13 11:29N 39°55' E 119°37'0 0.0
2015-May-13 10:29N 39°55' E 119°37'0 0.0
2015-May-13 09:29N 39°55' E 119°37'0 0.0
2015-May-13 08:29N 39°55' E 119°37'0 0.0
2015-May-13 07:29N 39°55' E 119°37'0 0.0
2015-May-13 06:29N 39°55' E 119°37'0 0.0
2015-May-12 19:29N 39°55' E 119°37'0 0.0
2015-May-12 15:29N 39°55' E 119°37'0 0.0
2015-May-12 14:11N 39°55' E 119°37'0 0.0
2015-May-12 13:33N 39°55' E 119°37'0 0.0
2015-May-12 12:32N 39°55' E 119°37'0 0.0
2015-May-12 07:25N 39°55' E 119°37'3 3.6
2015-May-12 06:33N 39°53' E 119°39'  

Dump ship's entire track history